sensor_id;sensor_type;location;lat;lon;timestamp;temperature;humidity
10300;DHT22;5195;48.562;9.192;2023-12-28T00:02:12;8.20;41.20
10300;DHT22;5195;48.562;9.192;2023-12-28T00:04:38;8.10;41.80
10300;DHT22;5195;48.562;9.192;2023-12-28T00:07:05;8.00;42.70
10300;DHT22;5195;48.562;9.192;2023-12-28T00:09:32;7.80;43.20
10300;DHT22;5195;48.562;9.192;2023-12-28T00:11:58;7.80;43.00
10300;DHT22;5195;48.562;9.192;2023-12-28T00:14:23;7.90;43.10
10300;DHT22;5195;48.562;9.192;2023-12-28T00:16:49;7.30;44.10
10300;DHT22;5195;48.562;9.192;2023-12-28T00:19:15;7.30;44.10
10300;DHT22;5195;48.562;9.192;2023-12-28T00:21:40;7.00;44.90
10300;DHT22;5195;48.562;9.192;2023-12-28T00:24:06;6.70;45.60
10300;DHT22;5195;48.562;9.192;2023-12-28T00:26:31;6.50;46.20
10300;DHT22;5195;48.562;9.192;2023-12-28T00:28:57;6.30;46.60
10300;DHT22;5195;48.562;9.192;2023-12-28T00:31:24;6.50;45.60
10300;DHT22;5195;48.562;9.192;2023-12-28T00:33:50;6.50;45.90
10300;DHT22;5195;48.562;9.192;2023-12-28T00:36:16;6.50;45.90
10300;DHT22;5195;48.562;9.192;2023-12-28T00:38:42;6.50;46.40
10300;DHT22;5195;48.562;9.192;2023-12-28T00:41:07;6.80;44.10
10300;DHT22;5195;48.562;9.192;2023-12-28T00:43:33;6.90;44.20
10300;DHT22;5195;48.562;9.192;2023-12-28T00:45:58;7.20;43.70
10300;DHT22;5195;48.562;9.192;2023-12-28T00:48:24;7.10;43.80
10300;DHT22;5195;48.562;9.192;2023-12-28T00:50:50;7.10;44.50
10300;DHT22;5195;48.562;9.192;2023-12-28T00:53:16;7.10;44.60
10300;DHT22;5195;48.562;9.192;2023-12-28T00:55:42;6.60;46.20
10300;DHT22;5195;48.562;9.192;2023-12-28T00:58:09;6.60;46.20
10300;DHT22;5195;48.562;9.192;2023-12-28T01:00:34;6.80;45.10
10300;DHT22;5195;48.562;9.192;2023-12-28T01:03:00;7.20;43.50
10300;DHT22;5195;48.562;9.192;2023-12-28T01:05:26;7.50;42.90
10300;DHT22;5195;48.562;9.192;2023-12-28T01:07:52;7.50;43.10
10300;DHT22;5195;48.562;9.192;2023-12-28T01:10:19;7.50;42.90
10300;DHT22;5195;48.562;9.192;2023-12-28T01:12:45;7.20;43.90
10300;DHT22;5195;48.562;9.192;2023-12-28T01:15:12;7.20;43.70
10300;DHT22;5195;48.562;9.192;2023-12-28T01:17:38;7.20;43.70
10300;DHT22;5195;48.562;9.192;2023-12-28T01:20:04;7.40;43.20
10300;DHT22;5195;48.562;9.192;2023-12-28T01:22:29;7.40;43.30
10300;DHT22;5195;48.562;9.192;2023-12-28T01:24:56;7.40;42.50
10300;DHT22;5195;48.562;9.192;2023-12-28T01:27:23;7.30;42.70
10300;DHT22;5195;48.562;9.192;2023-12-28T01:29:49;7.10;43.30
10300;DHT22;5195;48.562;9.192;2023-12-28T01:32:14;6.90;44.00
10300;DHT22;5195;48.562;9.192;2023-12-28T01:34:40;6.70;44.50
10300;DHT22;5195;48.562;9.192;2023-12-28T01:37:05;6.90;43.60
10300;DHT22;5195;48.562;9.192;2023-12-28T01:39:35;7.10;42.90
10300;DHT22;5195;48.562;9.192;2023-12-28T01:42:00;7.10;42.50
10300;DHT22;5195;48.562;9.192;2023-12-28T01:44:26;7.40;42.30
10300;DHT22;5195;48.562;9.192;2023-12-28T01:46:54;7.90;40.80
10300;DHT22;5195;48.562;9.192;2023-12-28T01:49:19;7.90;40.70
10300;DHT22;5195;48.562;9.192;2023-12-28T01:51:45;8.00;40.30
10300;DHT22;5195;48.562;9.192;2023-12-28T01:54:10;8.20;40.00
10300;DHT22;5195;48.562;9.192;2023-12-28T01:56:36;8.30;39.00
10300;DHT22;5195;48.562;9.192;2023-12-28T01:59:01;8.20;40.10
10300;DHT22;5195;48.562;9.192;2023-12-28T02:01:27;7.90;41.30
10300;DHT22;5195;48.562;9.192;2023-12-28T02:03:52;7.90;40.00
10300;DHT22;5195;48.562;9.192;2023-12-28T02:06:18;8.20;38.90
10300;DHT22;5195;48.562;9.192;2023-12-28T02:08:45;8.60;38.30
10300;DHT22;5195;48.562;9.192;2023-12-28T02:11:10;8.50;39.20
10300;DHT22;5195;48.562;9.192;2023-12-28T02:13:36;8.30;40.40
10300;DHT22;5195;48.562;9.192;2023-12-28T02:16:03;8.50;38.90
10300;DHT22;5195;48.562;9.192;2023-12-28T02:18:29;8.80;37.60
10300;DHT22;5195;48.562;9.192;2023-12-28T02:20:53;9.10;37.10
10300;DHT22;5195;48.562;9.192;2023-12-28T02:23:18;9.30;36.50
10300;DHT22;5195;48.562;9.192;2023-12-28T02:25:44;9.60;35.80
10300;DHT22;5195;48.562;9.192;2023-12-28T02:28:10;9.50;36.60
10300;DHT22;5195;48.562;9.192;2023-12-28T02:30:35;9.20;37.60
10300;DHT22;5195;48.562;9.192;2023-12-28T02:33:12;9.20;36.50
10300;DHT22;5195;48.562;9.192;2023-12-28T02:35:52;9.20;37.70
10300;DHT22;5195;48.562;9.192;2023-12-28T02:38:14;9.00;38.80
10300;DHT22;5195;48.562;9.192;2023-12-28T02:40:39;8.80;39.50
10300;DHT22;5195;48.562;9.192;2023-12-28T02:43:09;8.60;40.00
10300;DHT22;5195;48.562;9.192;2023-12-28T02:45:35;9.10;36.40
10300;DHT22;5195;48.562;9.192;2023-12-28T02:48:01;9.10;36.40
10300;DHT22;5195;48.562;9.192;2023-12-28T02:50:27;9.00;38.40
10300;DHT22;5195;48.562;9.192;2023-12-28T02:52:52;8.90;38.30
10300;DHT22;5195;48.562;9.192;2023-12-28T02:55:18;9.00;36.80
10300;DHT22;5195;48.562;9.192;2023-12-28T02:57:44;9.30;37.10
10300;DHT22;5195;48.562;9.192;2023-12-28T03:00:10;9.30;37.10
10300;DHT22;5195;48.562;9.192;2023-12-28T03:02:39;9.30;36.30
10300;DHT22;5195;48.562;9.192;2023-12-28T03:05:05;9.50;35.80
10300;DHT22;5195;48.562;9.192;2023-12-28T03:07:30;9.40;36.60
10300;DHT22;5195;48.562;9.192;2023-12-28T03:09:57;9.10;37.40
10300;DHT22;5195;48.562;9.192;2023-12-28T03:12:23;8.80;38.20
10300;DHT22;5195;48.562;9.192;2023-12-28T03:14:48;8.50;38.80
10300;DHT22;5195;48.562;9.192;2023-12-28T03:17:15;8.60;37.80
10300;DHT22;5195;48.562;9.192;2023-12-28T03:19:41;8.60;38.40
10300;DHT22;5195;48.562;9.192;2023-12-28T03:22:06;8.30;39.00
10300;DHT22;5195;48.562;9.192;2023-12-28T03:24:32;8.10;39.80
10300;DHT22;5195;48.562;9.192;2023-12-28T03:26:57;8.00;40.50
10300;DHT22;5195;48.562;9.192;2023-12-28T03:29:24;8.10;39.10
10300;DHT22;5195;48.562;9.192;2023-12-28T03:31:50;8.50;38.20
10300;DHT22;5195;48.562;9.192;2023-12-28T03:34:16;8.80;37.50
10300;DHT22;5195;48.562;9.192;2023-12-28T03:36:41;8.70;38.10
10300;DHT22;5195;48.562;9.192;2023-12-28T03:39:07;8.80;37.40
10300;DHT22;5195;48.562;9.192;2023-12-28T03:41:32;8.70;38.30
10300;DHT22;5195;48.562;9.192;2023-12-28T03:43:58;8.90;38.10
10300;DHT22;5195;48.562;9.192;2023-12-28T03:46:23;9.20;36.50
10300;DHT22;5195;48.562;9.192;2023-12-28T03:48:50;9.40;36.20
10300;DHT22;5195;48.562;9.192;2023-12-28T03:51:15;9.40;36.10
10300;DHT22;5195;48.562;9.192;2023-12-28T03:53:41;9.10;37.10
10300;DHT22;5195;48.562;9.192;2023-12-28T03:56:07;8.80;38.90
10300;DHT22;5195;48.562;9.192;2023-12-28T03:58:33;8.80;38.80
10300;DHT22;5195;48.562;9.192;2023-12-28T04:00:58;8.70;39.70
10300;DHT22;5195;48.562;9.192;2023-12-28T04:03:24;8.70;40.20
10300;DHT22;5195;48.562;9.192;2023-12-28T04:05:50;8.90;37.50
10300;DHT22;5195;48.562;9.192;2023-12-28T04:08:15;9.00;37.90
10300;DHT22;5195;48.562;9.192;2023-12-28T04:10:40;9.00;38.50
10300;DHT22;5195;48.562;9.192;2023-12-28T04:13:08;8.90;38.90
10300;DHT22;5195;48.562;9.192;2023-12-28T04:15:34;9.10;36.70
10300;DHT22;5195;48.562;9.192;2023-12-28T04:18:00;9.20;37.20
10300;DHT22;5195;48.562;9.192;2023-12-28T04:20:25;9.40;35.70
10300;DHT22;5195;48.562;9.192;2023-12-28T04:22:52;9.40;37.20
10300;DHT22;5195;48.562;9.192;2023-12-28T04:25:17;9.30;37.10
10300;DHT22;5195;48.562;9.192;2023-12-28T04:27:43;9.30;38.00
10300;DHT22;5195;48.562;9.192;2023-12-28T04:30:11;9.10;38.60
10300;DHT22;5195;48.562;9.192;2023-12-28T04:32:35;9.40;36.90
10300;DHT22;5195;48.562;9.192;2023-12-28T04:35:00;9.40;36.90
10300;DHT22;5195;48.562;9.192;2023-12-28T04:37:26;9.30;37.60
10300;DHT22;5195;48.562;9.192;2023-12-28T04:39:52;9.20;38.60
10300;DHT22;5195;48.562;9.192;2023-12-28T04:42:17;9.10;38.20
10300;DHT22;5195;48.562;9.192;2023-12-28T04:44:43;9.40;36.00
10300;DHT22;5195;48.562;9.192;2023-12-28T04:47:08;9.50;36.80
10300;DHT22;5195;48.562;9.192;2023-12-28T04:49:34;9.70;35.40
10300;DHT22;5195;48.562;9.192;2023-12-28T04:51:59;9.70;36.00
10300;DHT22;5195;48.562;9.192;2023-12-28T04:54:26;10.10;33.50
10300;DHT22;5195;48.562;9.192;2023-12-28T04:56:51;10.10;33.50
10300;DHT22;5195;48.562;9.192;2023-12-28T04:59:17;10.00;34.20
10300;DHT22;5195;48.562;9.192;2023-12-28T05:01:43;10.00;33.70
10300;DHT22;5195;48.562;9.192;2023-12-28T05:04:09;10.00;34.50
10300;DHT22;5195;48.562;9.192;2023-12-28T05:06:36;9.80;35.40
10300;DHT22;5195;48.562;9.192;2023-12-28T05:09:01;9.80;35.30
10300;DHT22;5195;48.562;9.192;2023-12-28T05:11:27;9.70;35.80
10300;DHT22;5195;48.562;9.192;2023-12-28T05:13:52;9.60;36.50
10300;DHT22;5195;48.562;9.192;2023-12-28T05:16:18;9.70;35.50
10300;DHT22;5195;48.562;9.192;2023-12-28T05:18:43;10.00;34.00
10300;DHT22;5195;48.562;9.192;2023-12-28T05:21:11;10.10;33.80
10300;DHT22;5195;48.562;9.192;2023-12-28T05:23:36;10.10;33.80
10300;DHT22;5195;48.562;9.192;2023-12-28T05:26:03;10.30;34.10
10300;DHT22;5195;48.562;9.192;2023-12-28T05:28:28;10.30;34.00
10300;DHT22;5195;48.562;9.192;2023-12-28T05:30:54;10.30;34.90
10300;DHT22;5195;48.562;9.192;2023-12-28T05:33:21;10.20;35.60
10300;DHT22;5195;48.562;9.192;2023-12-28T05:35:48;10.00;36.40
10300;DHT22;5195;48.562;9.192;2023-12-28T05:38:14;9.90;37.80
10300;DHT22;5195;48.562;9.192;2023-12-28T05:40:42;10.10;34.80
10300;DHT22;5195;48.562;9.192;2023-12-28T05:43:08;10.20;35.40
10300;DHT22;5195;48.562;9.192;2023-12-28T05:45:34;10.10;36.00
10300;DHT22;5195;48.562;9.192;2023-12-28T05:48:00;10.20;34.50
10300;DHT22;5195;48.562;9.192;2023-12-28T05:50:26;10.60;33.70
10300;DHT22;5195;48.562;9.192;2023-12-28T05:52:54;10.70;34.40
10300;DHT22;5195;48.562;9.192;2023-12-28T05:55:20;10.80;33.70
10300;DHT22;5195;48.562;9.192;2023-12-28T05:57:45;11.10;33.20
10300;DHT22;5195;48.562;9.192;2023-12-28T06:00:11;11.10;34.00
10300;DHT22;5195;48.562;9.192;2023-12-28T06:02:37;11.20;33.30
10300;DHT22;5195;48.562;9.192;2023-12-28T06:05:03;11.20;33.40
10300;DHT22;5195;48.562;9.192;2023-12-28T06:07:29;11.20;33.40
10300;DHT22;5195;48.562;9.192;2023-12-28T06:09:54;11.10;34.20
10300;DHT22;5195;48.562;9.192;2023-12-28T06:12:20;10.90;34.90
10300;DHT22;5195;48.562;9.192;2023-12-28T06:14:45;10.90;33.70
10300;DHT22;5195;48.562;9.192;2023-12-28T06:17:11;10.90;34.30
10300;DHT22;5195;48.562;9.192;2023-12-28T06:19:36;11.00;33.70
10300;DHT22;5195;48.562;9.192;2023-12-28T06:22:02;11.20;33.30
10300;DHT22;5195;48.562;9.192;2023-12-28T06:24:28;11.40;33.10
10300;DHT22;5195;48.562;9.192;2023-12-28T06:26:53;11.30;33.60
10300;DHT22;5195;48.562;9.192;2023-12-28T06:29:22;11.00;34.50
10300;DHT22;5195;48.562;9.192;2023-12-28T06:31:47;10.80;35.20
10300;DHT22;5195;48.562;9.192;2023-12-28T06:34:14;10.60;35.60
10300;DHT22;5195;48.562;9.192;2023-12-28T06:36:40;10.30;36.40
10300;DHT22;5195;48.562;9.192;2023-12-28T06:39:06;10.30;36.40
10300;DHT22;5195;48.562;9.192;2023-12-28T06:41:32;10.20;36.60
10300;DHT22;5195;48.562;9.192;2023-12-28T06:43:57;10.10;36.90
10300;DHT22;5195;48.562;9.192;2023-12-28T06:46:23;9.90;37.90
10300;DHT22;5195;48.562;9.192;2023-12-28T06:48:52;9.90;38.20
10300;DHT22;5195;48.562;9.192;2023-12-28T06:51:19;10.40;36.70
10300;DHT22;5195;48.562;9.192;2023-12-28T06:53:44;10.40;36.60
10300;DHT22;5195;48.562;9.192;2023-12-28T06:56:10;10.50;37.00
10300;DHT22;5195;48.562;9.192;2023-12-28T06:58:36;10.70;37.10
10300;DHT22;5195;48.562;9.192;2023-12-28T07:01:06;10.70;37.10
10300;DHT22;5195;48.562;9.192;2023-12-28T07:03:33;10.50;37.20
10300;DHT22;5195;48.562;9.192;2023-12-28T07:05:59;10.40;37.40
10300;DHT22;5195;48.562;9.192;2023-12-28T07:08:24;10.30;37.60
10300;DHT22;5195;48.562;9.192;2023-12-28T07:10:51;10.20;37.80
10300;DHT22;5195;48.562;9.192;2023-12-28T07:13:16;10.40;37.30
10300;DHT22;5195;48.562;9.192;2023-12-28T07:15:42;10.70;36.60
10300;DHT22;5195;48.562;9.192;2023-12-28T07:18:08;11.00;36.10
10300;DHT22;5195;48.562;9.192;2023-12-28T07:20:33;11.30;35.80
10300;DHT22;5195;48.562;9.192;2023-12-28T07:22:59;11.30;36.00
10300;DHT22;5195;48.562;9.192;2023-12-28T07:25:25;11.30;36.00
10300;DHT22;5195;48.562;9.192;2023-12-28T07:27:51;11.20;36.40
10300;DHT22;5195;48.562;9.192;2023-12-28T07:30:17;11.00;37.00
10300;DHT22;5195;48.562;9.192;2023-12-28T07:32:42;10.80;37.50
10300;DHT22;5195;48.562;9.192;2023-12-28T07:35:08;10.90;37.30
10300;DHT22;5195;48.562;9.192;2023-12-28T07:37:33;10.90;37.20
10300;DHT22;5195;48.562;9.192;2023-12-28T07:39:59;10.80;37.50
10300;DHT22;5195;48.562;9.192;2023-12-28T07:42:25;10.50;37.90
10300;DHT22;5195;48.562;9.192;2023-12-28T07:44:51;10.50;37.90
10300;DHT22;5195;48.562;9.192;2023-12-28T07:47:16;10.40;38.10
10300;DHT22;5195;48.562;9.192;2023-12-28T07:49:42;10.60;38.00
10300;DHT22;5195;48.562;9.192;2023-12-28T07:52:07;10.70;37.90
10300;DHT22;5195;48.562;9.192;2023-12-28T07:54:33;10.90;37.80
10300;DHT22;5195;48.562;9.192;2023-12-28T07:56:59;11.20;37.80
10300;DHT22;5195;48.562;9.192;2023-12-28T07:59:25;11.40;38.20
10300;DHT22;5195;48.562;9.192;2023-12-28T08:01:50;11.30;38.10
10300;DHT22;5195;48.562;9.192;2023-12-28T08:04:17;11.60;38.00
10300;DHT22;5195;48.562;9.192;2023-12-28T08:06:44;11.90;37.70
10300;DHT22;5195;48.562;9.192;2023-12-28T08:09:09;12.00;37.50
10300;DHT22;5195;48.562;9.192;2023-12-28T08:11:35;12.20;37.20
10300;DHT22;5195;48.562;9.192;2023-12-28T08:14:01;12.00;37.50
10300;DHT22;5195;48.562;9.192;2023-12-28T08:16:28;12.00;37.50
10300;DHT22;5195;48.562;9.192;2023-12-28T08:18:54;11.90;37.40
10300;DHT22;5195;48.562;9.192;2023-12-28T08:21:20;11.90;37.40
10300;DHT22;5195;48.562;9.192;2023-12-28T08:23:45;11.80;37.50
10300;DHT22;5195;48.562;9.192;2023-12-28T08:26:11;11.80;37.80
10300;DHT22;5195;48.562;9.192;2023-12-28T08:28:37;11.50;38.10
10300;DHT22;5195;48.562;9.192;2023-12-28T08:31:03;11.50;38.10
10300;DHT22;5195;48.562;9.192;2023-12-28T08:33:28;11.30;38.40
10300;DHT22;5195;48.562;9.192;2023-12-28T08:35:54;11.40;38.70
10300;DHT22;5195;48.562;9.192;2023-12-28T08:38:19;11.70;38.90
10300;DHT22;5195;48.562;9.192;2023-12-28T08:40:45;11.70;38.80
10300;DHT22;5195;48.562;9.192;2023-12-28T08:43:11;12.00;38.90
10300;DHT22;5195;48.562;9.192;2023-12-28T08:45:37;11.90;38.80
10300;DHT22;5195;48.562;9.192;2023-12-28T08:48:03;12.30;38.40
10300;DHT22;5195;48.562;9.192;2023-12-28T08:50:30;12.10;38.40
10300;DHT22;5195;48.562;9.192;2023-12-28T08:52:55;12.10;38.40
10300;DHT22;5195;48.562;9.192;2023-12-28T08:55:21;11.80;38.80
10300;DHT22;5195;48.562;9.192;2023-12-28T08:57:46;11.50;39.20
10300;DHT22;5195;48.562;9.192;2023-12-28T09:00:13;11.60;39.70
10300;DHT22;5195;48.562;9.192;2023-12-28T09:02:38;11.60;39.70
10300;DHT22;5195;48.562;9.192;2023-12-28T09:05:04;11.40;39.70
10300;DHT22;5195;48.562;9.192;2023-12-28T09:07:30;11.50;39.80
10300;DHT22;5195;48.562;9.192;2023-12-28T09:09:56;11.40;39.90
10300;DHT22;5195;48.562;9.192;2023-12-28T09:12:22;11.40;39.80
10300;DHT22;5195;48.562;9.192;2023-12-28T09:14:47;11.50;40.00
10300;DHT22;5195;48.562;9.192;2023-12-28T09:17:14;11.80;39.50
10300;DHT22;5195;48.562;9.192;2023-12-28T09:19:40;12.00;39.30
10300;DHT22;5195;48.562;9.192;2023-12-28T09:22:06;12.00;39.20
10300;DHT22;5195;48.562;9.192;2023-12-28T09:24:32;12.00;39.30
10300;DHT22;5195;48.562;9.192;2023-12-28T09:26:59;12.00;39.30
10300;DHT22;5195;48.562;9.192;2023-12-28T09:29:25;11.80;39.70
10300;DHT22;5195;48.562;9.192;2023-12-28T09:31:50;11.60;39.80
10300;DHT22;5195;48.562;9.192;2023-12-28T09:34:16;11.40;39.90
10300;DHT22;5195;48.562;9.192;2023-12-28T09:36:41;11.60;40.00
10300;DHT22;5195;48.562;9.192;2023-12-28T09:39:07;11.60;39.80
10300;DHT22;5195;48.562;9.192;2023-12-28T09:41:34;11.50;40.00
10300;DHT22;5195;48.562;9.192;2023-12-28T09:44:00;11.40;40.20
10300;DHT22;5195;48.562;9.192;2023-12-28T09:46:24;11.30;40.40
10300;DHT22;5195;48.562;9.192;2023-12-28T09:48:50;11.90;39.90
10300;DHT22;5195;48.562;9.192;2023-12-28T09:51:17;11.90;39.90
10300;DHT22;5195;48.562;9.192;2023-12-28T09:53:44;12.00;39.80
10300;DHT22;5195;48.562;9.192;2023-12-28T09:56:10;12.40;39.40
10300;DHT22;5195;48.562;9.192;2023-12-28T09:58:35;12.40;39.40
10300;DHT22;5195;48.562;9.192;2023-12-28T10:01:01;12.70;39.10
10300;DHT22;5195;48.562;9.192;2023-12-28T10:03:27;12.80;38.60
10300;DHT22;5195;48.562;9.192;2023-12-28T10:05:53;12.90;38.30
10300;DHT22;5195;48.562;9.192;2023-12-28T10:08:19;12.80;38.40
10300;DHT22;5195;48.562;9.192;2023-12-28T10:10:45;12.80;38.30
10300;DHT22;5195;48.562;9.192;2023-12-28T10:13:11;12.50;39.10
10300;DHT22;5195;48.562;9.192;2023-12-28T10:15:36;12.50;39.10
10300;DHT22;5195;48.562;9.192;2023-12-28T10:18:04;12.30;39.40
10300;DHT22;5195;48.562;9.192;2023-12-28T10:20:30;12.20;39.80
10300;DHT22;5195;48.562;9.192;2023-12-28T10:22:56;12.10;40.20
10300;DHT22;5195;48.562;9.192;2023-12-28T10:25:21;12.30;39.70
10300;DHT22;5195;48.562;9.192;2023-12-28T10:27:50;12.40;39.70
10300;DHT22;5195;48.562;9.192;2023-12-28T10:30:12;12.50;39.40
10300;DHT22;5195;48.562;9.192;2023-12-28T10:32:41;12.80;38.90
10300;DHT22;5195;48.562;9.192;2023-12-28T10:35:07;12.90;39.10
10300;DHT22;5195;48.562;9.192;2023-12-28T10:37:33;12.70;39.40
10300;DHT22;5195;48.562;9.192;2023-12-28T10:40:00;12.80;40.30
10300;DHT22;5195;48.562;9.192;2023-12-28T10:42:33;12.90;41.10
10300;DHT22;5195;48.562;9.192;2023-12-28T10:45:05;12.90;40.40
10300;DHT22;5195;48.562;9.192;2023-12-28T10:47:37;13.10;40.20
10300;DHT22;5195;48.562;9.192;2023-12-28T10:50:04;13.00;40.10
10300;DHT22;5195;48.562;9.192;2023-12-28T10:52:29;12.80;40.40
10300;DHT22;5195;48.562;9.192;2023-12-28T10:58:12;12.50;41.20
10300;DHT22;5195;48.562;9.192;2023-12-28T11:00:39;12.90;41.00
10300;DHT22;5195;48.562;9.192;2023-12-28T11:03:02;12.90;41.00
10300;DHT22;5195;48.562;9.192;2023-12-28T11:05:29;13.40;40.40
10300;DHT22;5195;48.562;9.192;2023-12-28T11:07:55;13.50;39.60
10300;DHT22;5195;48.562;9.192;2023-12-28T11:10:21;13.50;39.60
10300;DHT22;5195;48.562;9.192;2023-12-28T11:12:47;13.40;39.80
10300;DHT22;5195;48.562;9.192;2023-12-28T11:15:13;13.10;40.10
10300;DHT22;5195;48.562;9.192;2023-12-28T11:17:38;13.10;40.80
10300;DHT22;5195;48.562;9.192;2023-12-28T11:20:05;13.10;40.80
10300;DHT22;5195;48.562;9.192;2023-12-28T11:22:31;12.90;40.90
10300;DHT22;5195;48.562;9.192;2023-12-28T11:24:56;12.80;41.20
10300;DHT22;5195;48.562;9.192;2023-12-28T11:27:22;12.70;41.40
10300;DHT22;5195;48.562;9.192;2023-12-28T11:29:48;12.80;41.90
10300;DHT22;5195;48.562;9.192;2023-12-28T11:32:13;12.90;41.70
10300;DHT22;5195;48.562;9.192;2023-12-28T11:34:38;12.90;41.90
10300;DHT22;5195;48.562;9.192;2023-12-28T11:37:06;12.80;42.00
10300;DHT22;5195;48.562;9.192;2023-12-28T11:39:30;12.90;42.30
10300;DHT22;5195;48.562;9.192;2023-12-28T11:42:05;13.30;42.10
10300;DHT22;5195;48.562;9.192;2023-12-28T11:44:30;13.60;41.80
10300;DHT22;5195;48.562;9.192;2023-12-28T11:46:56;13.90;41.60
10300;DHT22;5195;48.562;9.192;2023-12-28T11:49:28;14.10;41.50
10300;DHT22;5195;48.562;9.192;2023-12-28T11:51:54;14.00;41.40
10300;DHT22;5195;48.562;9.192;2023-12-28T11:54:19;13.70;41.60
10300;DHT22;5195;48.562;9.192;2023-12-28T11:56:44;13.70;42.40
10300;DHT22;5195;48.562;9.192;2023-12-28T11:59:10;13.70;42.30
10300;DHT22;5195;48.562;9.192;2023-12-28T12:01:36;13.70;43.00
10300;DHT22;5195;48.562;9.192;2023-12-28T12:04:02;13.90;43.40
10300;DHT22;5195;48.562;9.192;2023-12-28T12:06:28;14.00;43.70
10300;DHT22;5195;48.562;9.192;2023-12-28T12:08:54;14.00;43.70
10300;DHT22;5195;48.562;9.192;2023-12-28T12:11:19;14.20;43.90
10300;DHT22;5195;48.562;9.192;2023-12-28T12:13:45;14.10;43.40
10300;DHT22;5195;48.562;9.192;2023-12-28T12:16:13;13.90;43.60
10300;DHT22;5195;48.562;9.192;2023-12-28T12:18:36;13.90;44.40
10300;DHT22;5195;48.562;9.192;2023-12-28T12:21:02;13.80;44.10
10300;DHT22;5195;48.562;9.192;2023-12-28T12:23:27;13.90;44.70
10300;DHT22;5195;48.562;9.192;2023-12-28T12:25:53;14.00;44.60
10300;DHT22;5195;48.562;9.192;2023-12-28T12:28:18;13.90;44.20
10300;DHT22;5195;48.562;9.192;2023-12-28T12:30:52;13.90;44.80
10300;DHT22;5195;48.562;9.192;2023-12-28T12:33:16;13.80;44.60
10300;DHT22;5195;48.562;9.192;2023-12-28T12:35:42;13.90;45.40
10300;DHT22;5195;48.562;9.192;2023-12-28T12:38:07;13.80;45.10
10300;DHT22;5195;48.562;9.192;2023-12-28T12:40:33;13.80;45.70
10300;DHT22;5195;48.562;9.192;2023-12-28T12:42:58;13.70;45.40
10300;DHT22;5195;48.562;9.192;2023-12-28T12:45:25;13.50;45.50
10300;DHT22;5195;48.562;9.192;2023-12-28T12:47:51;13.50;46.20
10300;DHT22;5195;48.562;9.192;2023-12-28T12:50:17;13.50;45.90
10300;DHT22;5195;48.562;9.192;2023-12-28T12:52:44;13.10;46.20
10300;DHT22;5195;48.562;9.192;2023-12-28T12:55:14;12.90;46.40
10300;DHT22;5195;48.562;9.192;2023-12-28T12:57:40;13.10;47.60
10300;DHT22;5195;48.562;9.192;2023-12-28T13:00:06;13.10;47.60
10300;DHT22;5195;48.562;9.192;2023-12-28T13:02:31;13.10;47.10
10300;DHT22;5195;48.562;9.192;2023-12-28T13:04:57;13.30;47.80
10300;DHT22;5195;48.562;9.192;2023-12-28T13:07:23;13.70;47.10
10300;DHT22;5195;48.562;9.192;2023-12-28T13:09:49;13.70;47.80
10300;DHT22;5195;48.562;9.192;2023-12-28T13:12:15;13.40;46.90
10300;DHT22;5195;48.562;9.192;2023-12-28T13:14:41;13.40;46.90
10300;DHT22;5195;48.562;9.192;2023-12-28T13:17:06;13.40;47.90
10300;DHT22;5195;48.562;9.192;2023-12-28T13:19:32;13.60;48.30
10300;DHT22;5195;48.562;9.192;2023-12-28T13:21:57;13.80;48.50
10300;DHT22;5195;48.562;9.192;2023-12-28T13:24:23;14.00;48.30
10300;DHT22;5195;48.562;9.192;2023-12-28T13:26:50;13.90;47.90
10300;DHT22;5195;48.562;9.192;2023-12-28T13:29:15;13.80;48.30
10300;DHT22;5195;48.562;9.192;2023-12-28T13:31:41;13.70;48.10
10300;DHT22;5195;48.562;9.192;2023-12-28T13:34:06;13.40;48.20
10300;DHT22;5195;48.562;9.192;2023-12-28T13:36:32;13.40;49.30
10300;DHT22;5195;48.562;9.192;2023-12-28T13:38:57;13.50;49.80
10300;DHT22;5195;48.562;9.192;2023-12-28T13:41:24;13.60;48.80
10300;DHT22;5195;48.562;9.192;2023-12-28T13:43:49;13.60;49.40
10300;DHT22;5195;48.562;9.192;2023-12-28T13:46:16;13.40;50.40
10300;DHT22;5195;48.562;9.192;2023-12-28T13:48:41;13.40;50.40
10300;DHT22;5195;48.562;9.192;2023-12-28T13:51:07;13.10;50.50
10300;DHT22;5195;48.562;9.192;2023-12-28T13:53:33;12.60;51.10
10300;DHT22;5195;48.562;9.192;2023-12-28T13:55:59;12.60;51.10
10300;DHT22;5195;48.562;9.192;2023-12-28T13:58:24;12.60;53.60
10300;DHT22;5195;48.562;9.192;2023-12-28T14:00:50;12.90;54.70
10300;DHT22;5195;48.562;9.192;2023-12-28T14:03:15;13.10;54.90
10300;DHT22;5195;48.562;9.192;2023-12-28T14:05:41;13.20;54.40
10300;DHT22;5195;48.562;9.192;2023-12-28T14:08:07;13.20;54.50
10300;DHT22;5195;48.562;9.192;2023-12-28T14:10:33;13.20;53.70
10300;DHT22;5195;48.562;9.192;2023-12-28T14:13:00;13.10;55.00
10300;DHT22;5195;48.562;9.192;2023-12-28T14:15:25;13.20;55.00
10300;DHT22;5195;48.562;9.192;2023-12-28T14:17:51;13.00;54.40
10300;DHT22;5195;48.562;9.192;2023-12-28T14:20:18;12.70;54.50
10300;DHT22;5195;48.562;9.192;2023-12-28T14:22:44;12.70;55.40
10300;DHT22;5195;48.562;9.192;2023-12-28T14:25:10;12.60;55.00
10300;DHT22;5195;48.562;9.192;2023-12-28T14:27:35;12.40;55.00
10300;DHT22;5195;48.562;9.192;2023-12-28T14:30:01;12.50;56.00
10300;DHT22;5195;48.562;9.192;2023-12-28T14:32:30;12.40;55.40
10300;DHT22;5195;48.562;9.192;2023-12-28T14:34:56;12.10;55.50
10300;DHT22;5195;48.562;9.192;2023-12-28T14:37:22;12.20;56.80
10300;DHT22;5195;48.562;9.192;2023-12-28T14:39:49;12.20;56.80
10300;DHT22;5195;48.562;9.192;2023-12-28T14:42:15;12.20;56.30
10300;DHT22;5195;48.562;9.192;2023-12-28T14:44:40;12.10;56.40
10300;DHT22;5195;48.562;9.192;2023-12-28T14:47:06;12.20;57.20
10300;DHT22;5195;48.562;9.192;2023-12-28T14:49:32;12.70;57.20
10300;DHT22;5195;48.562;9.192;2023-12-28T14:51:58;12.70;56.80
10300;DHT22;5195;48.562;9.192;2023-12-28T14:54:23;12.60;56.20
10300;DHT22;5195;48.562;9.192;2023-12-28T14:56:49;12.70;56.70
10300;DHT22;5195;48.562;9.192;2023-12-28T14:59:16;12.60;56.30
10300;DHT22;5195;48.562;9.192;2023-12-28T15:01:41;12.60;56.30
10300;DHT22;5195;48.562;9.192;2023-12-28T15:04:07;12.80;55.80
10300;DHT22;5195;48.562;9.192;2023-12-28T15:06:33;12.90;55.10
10300;DHT22;5195;48.562;9.192;2023-12-28T15:08:58;12.80;54.80
10300;DHT22;5195;48.562;9.192;2023-12-28T15:11:24;12.70;55.20
10300;DHT22;5195;48.562;9.192;2023-12-28T15:13:50;12.60;55.00
10300;DHT22;5195;48.562;9.192;2023-12-28T15:16:15;12.50;55.60
10300;DHT22;5195;48.562;9.192;2023-12-28T15:18:41;12.70;55.50
10300;DHT22;5195;48.562;9.192;2023-12-28T15:21:07;12.50;55.00
10300;DHT22;5195;48.562;9.192;2023-12-28T15:23:32;12.50;56.00
10300;DHT22;5195;48.562;9.192;2023-12-28T15:25:58;12.60;56.20
10300;DHT22;5195;48.562;9.192;2023-12-28T15:28:24;12.70;56.20
10300;DHT22;5195;48.562;9.192;2023-12-28T15:30:49;12.80;56.20
10300;DHT22;5195;48.562;9.192;2023-12-28T15:33:15;12.90;56.10
10300;DHT22;5195;48.562;9.192;2023-12-28T15:35:42;12.90;55.90
10300;DHT22;5195;48.562;9.192;2023-12-28T15:38:07;12.90;56.00
10300;DHT22;5195;48.562;9.192;2023-12-28T15:40:34;12.60;55.90
10300;DHT22;5195;48.562;9.192;2023-12-28T15:42:59;12.50;56.70
10300;DHT22;5195;48.562;9.192;2023-12-28T15:45:25;12.50;56.80
10300;DHT22;5195;48.562;9.192;2023-12-28T15:47:51;12.30;56.50